createdAt,value
2022-12-11T00:02:08.983Z,28.58
2022-12-11T00:04:35.673Z,29.23
2022-12-11T00:07:02.039Z,29.17
2022-12-11T00:09:29.575Z,27.58
2022-12-11T00:11:56.196Z,28.33
2022-12-11T00:14:22.569Z,28.63
2022-12-11T00:16:49.001Z,28.77
2022-12-11T00:19:15.939Z,30.15
2022-12-11T00:21:42.327Z,29.83
2022-12-11T00:24:08.760Z,31.10
2022-12-11T00:26:35.115Z,28.40
2022-12-11T00:29:01.619Z,30.60
2022-12-11T00:31:28.085Z,29.73
2022-12-11T00:33:54.564Z,28.50
2022-12-11T00:36:24.769Z,30.42
2022-12-11T00:38:52.565Z,31.38
2022-12-11T00:41:19.326Z,30.20
2022-12-11T00:43:46.315Z,29.65
2022-12-11T00:46:13.022Z,29.77
2022-12-11T00:48:39.774Z,29.67
2022-12-11T00:51:06.873Z,30.45
2022-12-11T00:53:33.381Z,29.75
2022-12-11T00:55:59.760Z,28.52
2022-12-11T00:58:26.127Z,30.65
2022-12-11T01:00:53.831Z,30.38
2022-12-11T01:03:20.232Z,30.60
2022-12-11T01:05:54.135Z,29.15
2022-12-11T01:08:20.732Z,31.40
2022-12-11T01:10:47.580Z,28.83
2022-12-11T01:13:14.144Z,29.80
2022-12-11T01:15:43.385Z,30.15
2022-12-11T01:18:11.494Z,28.52
2022-12-11T01:20:39.466Z,28.23
2022-12-11T01:23:06.261Z,29.48
2022-12-11T01:25:32.864Z,29.55
2022-12-11T01:27:59.602Z,30.20
2022-12-11T01:30:26.492Z,31.20
2022-12-11T01:32:52.981Z,31.15
2022-12-11T01:35:19.773Z,32.38
2022-12-11T01:37:47.704Z,34.15
2022-12-11T01:40:16.970Z,34.75
2022-12-11T01:42:43.457Z,34.25
2022-12-11T01:45:22.510Z,33.22
2022-12-11T01:47:54.036Z,34.78
2022-12-11T01:50:20.648Z,32.90
2022-12-11T01:52:48.922Z,35.45
2022-12-11T01:55:15.913Z,35.47
2022-12-11T01:57:45.116Z,34.78
2022-12-11T02:00:11.970Z,35.03
2022-12-11T02:02:38.411Z,34.53
2022-12-11T02:05:06.672Z,34.25
2022-12-11T02:07:39.999Z,36.65
2022-12-11T02:10:07.326Z,35.25
2022-12-11T02:12:45.905Z,35.38
2022-12-11T02:15:21.571Z,35.30
2022-12-11T02:18:13.888Z,35.55
2022-12-11T02:20:52.011Z,34.45
2022-12-11T02:23:43.920Z,35.92
2022-12-11T02:26:22.208Z,36.22
2022-12-11T02:28:58.869Z,37.28
2022-12-11T02:31:51.402Z,36.03
2022-12-11T02:34:32.789Z,35.15
2022-12-11T02:37:03.973Z,35.42
2022-12-11T02:39:33.504Z,36.75
2022-12-11T02:42:00.769Z,36.63
2022-12-11T02:44:30.660Z,37.53
2022-12-11T02:46:58.303Z,36.33
2022-12-11T02:49:26.285Z,36.20
2022-12-11T02:51:56.530Z,37.97
2022-12-11T02:54:30.049Z,37.38
2022-12-11T02:57:08.902Z,39.78
2022-12-11T02:59:39.139Z,40.95
2022-12-11T03:02:05.857Z,41.33
2022-12-11T03:04:34.961Z,41.85
2022-12-11T03:07:04.952Z,42.03
2022-12-11T03:09:31.940Z,39.17
2022-12-11T03:11:58.348Z,42.38
2022-12-11T03:14:24.737Z,39.85
2022-12-11T03:17:03.730Z,41.55
2022-12-11T03:19:36.552Z,42.30
2022-12-11T03:22:07.296Z,42.80
2022-12-11T03:25:00.633Z,43.25
2022-12-11T03:27:36.659Z,42.65
2022-12-11T03:30:11.605Z,45.30
2022-12-11T03:32:48.924Z,45.25
2022-12-11T03:35:24.597Z,46.35
2022-12-11T03:37:52.985Z,44.58
2022-12-11T03:40:21.735Z,44.97
2022-12-11T03:42:52.331Z,46.17
2022-12-11T03:45:21.859Z,45.92
2022-12-11T03:47:50.332Z,46.08
2022-12-11T03:50:18.504Z,46.58
2022-12-11T03:52:46.981Z,46.25
2022-12-11T03:55:16.530Z,47.88
2022-12-11T03:57:43.380Z,48.97
2022-12-11T04:00:13.714Z,50.40
2022-12-11T04:02:41.344Z,51.78
2022-12-11T04:05:09.175Z,51.20
2022-12-11T04:07:36.424Z,51.55
2022-12-11T04:10:04.721Z,49.63
2022-12-11T04:15:59.037Z,49.10
2022-12-11T04:18:25.422Z,52.30
2022-12-11T04:20:55.573Z,51.70
2022-12-11T04:23:21.943Z,52.28
2022-12-11T04:25:48.328Z,51.63
2022-12-11T04:28:14.721Z,49.22
2022-12-11T04:30:41.137Z,52.05
2022-12-11T04:33:07.552Z,50.10
2022-12-11T04:35:34.016Z,49.22
2022-12-11T04:38:00.371Z,49.35
2022-12-11T04:40:26.844Z,52.22
2022-12-11T04:46:25.193Z,50.75
2022-12-11T04:48:57.350Z,52.40
2022-12-11T04:51:24.756Z,54.00
2022-12-11T04:53:51.148Z,52.42
2022-12-11T04:56:17.611Z,52.80
2022-12-11T04:58:44.994Z,51.63
2022-12-11T05:01:14.201Z,54.53
2022-12-11T05:03:41.684Z,53.22
2022-12-11T05:06:09.854Z,55.15
2022-12-11T05:08:38.688Z,55.20
2022-12-11T05:11:07.840Z,51.90
2022-12-11T05:13:34.239Z,54.65
2022-12-11T05:16:03.140Z,53.22
2022-12-11T05:18:29.578Z,53.20
2022-12-11T05:21:01.231Z,55.28
2022-12-11T05:23:28.251Z,53.08
2022-12-11T05:25:56.373Z,54.28
2022-12-11T05:28:23.463Z,52.47
2022-12-11T05:30:58.153Z,54.08
2022-12-11T05:33:25.659Z,52.85
2022-12-11T05:35:52.386Z,54.10
2022-12-11T05:38:19.075Z,52.30
2022-12-11T05:40:45.549Z,56.03
2022-12-11T05:43:11.885Z,54.33
2022-12-11T05:45:38.239Z,53.88
2022-12-11T05:48:04.726Z,51.08
2022-12-11T05:50:31.085Z,55.72
2022-12-11T05:52:57.396Z,52.20
2022-12-11T05:55:23.763Z,52.00
2022-12-11T05:57:50.109Z,53.53
2022-12-11T06:00:16.560Z,51.47
2022-12-11T06:02:43.031Z,53.22
2022-12-11T06:05:09.808Z,54.28
2022-12-11T06:07:36.234Z,51.83
2022-12-11T06:10:02.623Z,54.15
2022-12-11T06:12:28.954Z,52.53
2022-12-11T06:14:55.330Z,51.42
2022-12-11T06:17:21.643Z,51.00
2022-12-11T06:19:49.120Z,54.15
2022-12-11T06:22:15.466Z,51.33
2022-12-11T06:24:41.822Z,52.40
2022-12-11T06:27:08.142Z,50.72
2022-12-11T06:29:34.523Z,52.95
2022-12-11T06:32:00.950Z,54.42
2022-12-11T06:34:27.482Z,49.30
2022-12-11T06:36:53.801Z,50.90
2022-12-11T06:39:20.160Z,51.50
2022-12-11T06:41:46.542Z,48.50
2022-12-11T06:44:12.882Z,46.92
2022-12-11T06:46:39.215Z,56.33
2022-12-11T06:49:05.570Z,60.42
2022-12-11T06:51:31.907Z,56.85
2022-12-11T06:53:58.267Z,53.92
2022-12-11T06:56:25.257Z,51.65
2022-12-11T06:58:52.583Z,48.22
2022-12-11T07:01:25.058Z,54.20
2022-12-11T07:03:55.993Z,51.25
2022-12-11T07:06:23.304Z,49.35
2022-12-11T07:08:49.812Z,49.40
2022-12-11T07:11:17.381Z,45.90
2022-12-11T07:13:44.133Z,46.67
2022-12-11T07:16:12.872Z,48.60
2022-12-11T07:18:41.187Z,44.75
2022-12-11T07:21:09.596Z,44.78
2022-12-11T07:23:36.071Z,41.83
2022-12-11T07:26:08.402Z,42.38
2022-12-11T07:28:35.567Z,40.30
2022-12-11T07:31:09.965Z,39.30
2022-12-11T07:33:36.876Z,39.47
2022-12-11T07:36:05.397Z,38.05
2022-12-11T07:38:32.456Z,37.45
2022-12-11T07:41:03.338Z,35.83
2022-12-11T07:43:29.706Z,34.85
2022-12-11T07:46:01.154Z,35.10
2022-12-11T07:48:27.502Z,34.30
2022-12-11T07:50:53.851Z,32.65
2022-12-11T07:53:20.199Z,33.72
2022-12-11T07:55:46.656Z,32.97
2022-12-11T07:58:13.017Z,30.67
2022-12-11T08:00:39.396Z,34.85
2022-12-11T08:03:05.759Z,31.70
2022-12-11T08:05:32.123Z,31.05
2022-12-11T08:07:58.528Z,32.72
2022-12-11T08:10:25.094Z,32.88
2022-12-11T08:12:51.529Z,30.98
2022-12-11T08:15:18.025Z,30.63
2022-12-11T08:17:44.375Z,29.00
2022-12-11T08:20:10.718Z,32.65
2022-12-11T08:22:37.036Z,30.33
2022-12-11T08:25:03.640Z,31.40
2022-12-11T08:27:29.949Z,30.63
2022-12-11T08:29:56.272Z,30.10
2022-12-11T08:32:22.619Z,29.10
2022-12-11T08:34:51.094Z,30.98
2022-12-11T08:37:17.381Z,29.55
2022-12-11T08:39:43.669Z,28.33
2022-12-11T08:42:10.000Z,28.90
2022-12-11T08:44:36.327Z,29.90
2022-12-11T08:47:02.710Z,31.42
2022-12-11T08:49:34.170Z,28.02
2022-12-11T08:52:01.090Z,27.88
2022-12-11T08:54:27.458Z,27.60
2022-12-11T08:56:57.943Z,26.38
2022-12-11T08:59:25.158Z,27.15
2022-12-11T09:01:52.337Z,27.50
2022-12-11T09:04:18.713Z,27.17
2022-12-11T09:06:45.056Z,24.70
2022-12-11T09:09:11.382Z,25.48
2022-12-11T09:11:37.718Z,25.65
2022-12-11T09:14:07.543Z,25.08
2022-12-11T09:16:35.414Z,26.35
2022-12-11T09:19:01.763Z,27.15
2022-12-11T09:21:29.558Z,27.27
2022-12-11T09:23:58.696Z,29.33
2022-12-11T09:26:26.328Z,25.25
2022-12-11T09:28:53.321Z,25.80
2022-12-11T09:31:22.832Z,24.50
2022-12-11T09:33:50.370Z,25.83
2022-12-11T09:36:16.687Z,23.98
2022-12-11T09:38:43.059Z,24.75
2022-12-11T09:41:32.557Z,25.05
2022-12-11T09:44:05.091Z,24.73
2022-12-11T09:46:34.312Z,23.17
2022-12-11T09:49:03.205Z,23.77
2022-12-11T09:51:51.886Z,25.38
2022-12-11T09:54:18.243Z,24.75
2022-12-11T09:56:56.382Z,25.75
2022-12-11T09:59:31.479Z,23.40
2022-12-11T10:02:13.194Z,23.52
2022-12-11T10:04:58.152Z,23.55
2022-12-11T10:07:59.717Z,23.70
2022-12-11T10:10:51.474Z,23.05
2022-12-11T10:14:01.761Z,24.98
2022-12-11T10:16:45.151Z,24.75
2022-12-11T10:19:18.506Z,24.70
2022-12-11T10:21:46.555Z,23.38
2022-12-11T10:25:10.741Z,25.58
2022-12-11T10:27:40.561Z,23.20
2022-12-11T10:30:12.955Z,24.60
2022-12-11T10:32:50.418Z,23.92
2022-12-11T10:35:38.284Z,23.13
2022-12-11T10:38:14.971Z,24.08
2022-12-11T10:40:45.365Z,26.00
2022-12-11T10:43:12.582Z,25.88
2022-12-11T10:45:39.397Z,25.15
2022-12-11T10:48:14.772Z,26.05
2022-12-11T10:50:44.833Z,25.55
2022-12-11T10:53:21.845Z,25.40
2022-12-11T10:55:49.025Z,26.60
2022-12-11T10:58:19.638Z,25.13
2022-12-11T11:00:46.849Z,25.77
2022-12-11T11:03:23.468Z,27.23
2022-12-11T11:05:50.391Z,24.00
2022-12-11T11:08:21.855Z,22.77
2022-12-11T11:10:55.989Z,22.00
2022-12-11T11:13:25.296Z,26.38
2022-12-11T11:16:13.333Z,27.77
2022-12-11T11:18:41.490Z,23.67
2022-12-11T11:21:16.820Z,21.63
2022-12-11T11:23:46.366Z,23.00
2022-12-11T11:26:17.903Z,22.20
2022-12-11T11:28:54.445Z,21.88
2022-12-11T11:31:30.270Z,20.40
2022-12-11T11:34:07.946Z,21.73
2022-12-11T11:36:36.504Z,23.48
2022-12-11T11:39:17.073Z,24.63
2022-12-11T11:41:55.796Z,25.92
2022-12-11T11:44:31.018Z,23.00
2022-12-11T11:47:22.280Z,21.80
2022-12-11T11:50:08.072Z,24.40
2022-12-11T11:52:41.692Z,24.23
2022-12-11T11:55:18.708Z,24.52
2022-12-11T11:57:58.441Z,24.45
2022-12-11T12:00:31.869Z,24.38
2022-12-11T12:03:08.594Z,24.00
2022-12-11T12:06:04.048Z,24.83
2022-12-11T12:08:48.741Z,26.17
2022-12-11T12:11:40.457Z,27.08
2022-12-11T12:17:25.161Z,26.23
2022-12-11T12:20:01.898Z,25.48
2022-12-11T12:22:43.650Z,25.40
2022-12-11T12:25:36.551Z,24.88
2022-12-11T12:28:15.713Z,24.13
2022-12-11T12:30:50.974Z,23.58
2022-12-11T12:33:36.776Z,25.38
2022-12-11T12:36:16.730Z,24.23
2022-12-11T12:38:57.820Z,23.42
2022-12-11T12:41:48.638Z,22.77
2022-12-11T12:44:18.103Z,22.17
2022-12-11T12:46:53.724Z,21.77
2022-12-11T12:49:25.458Z,21.40
2022-12-11T12:51:52.686Z,21.65
2022-12-11T12:54:21.481Z,24.77
2022-12-11T12:56:48.968Z,22.00
2022-12-11T12:59:26.510Z,23.23
2022-12-11T13:01:58.835Z,22.63
2022-12-11T13:04:55.841Z,22.85
2022-12-11T13:07:26.912Z,24.25
2022-12-11T13:09:58.209Z,22.05
2022-12-11T13:12:33.702Z,22.58
2022-12-11T13:15:00.753Z,20.35
2022-12-11T13:17:37.471Z,20.90
2022-12-11T13:20:13.673Z,23.33
2022-12-11T13:23:05.607Z,21.85
2022-12-11T13:25:44.846Z,22.05
2022-12-11T13:28:48.233Z,24.08
2022-12-11T13:31:14.603Z,20.42
2022-12-11T13:33:49.802Z,21.50
2022-12-11T13:36:37.055Z,20.63
2022-12-11T13:39:16.787Z,20.67
2022-12-11T13:41:47.090Z,19.73
2022-12-11T13:44:23.942Z,18.15
2022-12-11T13:46:52.822Z,18.60
2022-12-11T13:49:33.221Z,18.02
2022-12-11T13:52:00.699Z,18.48
2022-12-11T13:54:29.041Z,18.80
2022-12-11T13:57:14.918Z,14.85
2022-12-11T13:59:43.638Z,15.15
2022-12-11T14:02:19.025Z,15.02
2022-12-11T14:04:47.510Z,16.48
2022-12-11T14:07:22.299Z,14.18
2022-12-11T14:12:21.495Z,15.88
2022-12-11T14:14:55.635Z,17.88
2022-12-11T14:17:27.729Z,22.75
2022-12-11T14:19:56.812Z,25.67
2022-12-11T14:22:26.978Z,23.65
2022-12-11T14:24:58.535Z,24.33
2022-12-11T14:27:26.241Z,30.95
2022-12-11T14:29:53.348Z,26.75
2022-12-11T14:32:34.914Z,26.80
2022-12-11T14:35:05.796Z,27.73
2022-12-11T14:37:34.379Z,27.25
2022-12-11T14:40:09.146Z,29.40
2022-12-11T14:45:09.383Z,27.38
2022-12-11T14:47:42.841Z,25.92
2022-12-11T14:50:35.388Z,26.23
2022-12-11T14:53:13.226Z,26.75
2022-12-11T14:55:40.574Z,26.42
2022-12-11T14:58:14.302Z,24.90
2022-12-11T15:00:40.727Z,28.17
2022-12-11T15:03:22.110Z,28.48
2022-12-11T15:05:56.549Z,26.67
2022-12-11T15:08:32.423Z,27.30
2022-12-11T15:11:07.636Z,26.98
2022-12-11T15:13:37.096Z,27.73
2022-12-11T15:16:06.702Z,27.90
2022-12-11T15:18:36.166Z,27.63
2022-12-11T15:21:04.923Z,27.88
2022-12-11T15:23:31.309Z,28.80
2022-12-11T15:26:02.236Z,25.45
2022-12-11T15:28:34.355Z,26.67
2022-12-11T15:31:04.672Z,26.63
2022-12-11T15:33:34.612Z,25.05
2022-12-11T15:36:05.457Z,25.60
2022-12-11T15:38:37.432Z,25.13
2022-12-11T15:41:04.115Z,23.55
2022-12-11T15:43:34.423Z,23.85
2022-12-11T15:46:02.089Z,23.70
2022-12-11T15:48:28.532Z,23.85
2022-12-11T15:50:54.881Z,25.10
2022-12-11T15:53:21.221Z,24.58
2022-12-11T15:55:47.776Z,24.42
2022-12-11T15:58:18.337Z,24.70
2022-12-11T16:00:44.786Z,25.58
2022-12-11T16:03:15.856Z,27.92
2022-12-11T16:05:42.380Z,25.58
2022-12-11T16:08:13.182Z,25.23
2022-12-11T16:10:39.525Z,26.42
2022-12-11T16:13:05.834Z,26.63
2022-12-11T16:15:32.247Z,25.95
2022-12-11T16:18:00.881Z,27.10
2022-12-11T16:20:27.258Z,25.08
2022-12-11T16:22:53.621Z,25.17
2022-12-11T16:25:19.971Z,25.98
2022-12-11T16:27:46.349Z,26.27
2022-12-11T16:30:13.505Z,26.30
2022-12-11T16:32:39.867Z,26.30
2022-12-11T16:35:06.532Z,27.35
2022-12-11T16:37:32.877Z,28.13
2022-12-11T16:39:59.207Z,27.48
2022-12-11T16:42:25.528Z,27.30
2022-12-11T16:44:51.832Z,26.45
2022-12-11T16:47:18.174Z,26.95
2022-12-11T16:49:44.453Z,27.52
2022-12-11T16:52:10.795Z,26.98
2022-12-11T16:54:37.357Z,27.17
2022-12-11T16:57:03.775Z,26.98
2022-12-11T16:59:36.566Z,27.48
2022-12-11T17:02:03.642Z,29.60
2022-12-11T17:04:29.997Z,34.25
2022-12-11T17:06:56.297Z,39.38
2022-12-11T17:09:22.642Z,41.47
2022-12-11T17:11:49.354Z,37.03
2022-12-11T17:14:15.666Z,38.25
2022-12-11T17:16:41.989Z,39.05
2022-12-11T17:19:08.607Z,36.78
2022-12-11T17:21:34.905Z,34.10
2022-12-11T17:24:01.229Z,32.95
2022-12-11T17:26:27.830Z,30.67
2022-12-11T17:28:55.925Z,33.78
2022-12-11T17:31:22.316Z,36.30
2022-12-11T17:33:48.801Z,36.63
2022-12-11T17:36:17.911Z,36.08
2022-12-11T17:38:44.812Z,35.65
2022-12-11T17:41:18.524Z,32.30
2022-12-11T17:43:47.329Z,31.27
2022-12-11T17:46:14.237Z,29.98
2022-12-11T17:48:40.782Z,28.27
2022-12-11T17:51:08.857Z,28.33
2022-12-11T17:53:35.568Z,31.27
2022-12-11T17:56:04.339Z,34.03
2022-12-11T17:58:30.886Z,30.73
2022-12-11T18:00:58.363Z,30.52
2022-12-11T18:03:27.839Z,28.83
2022-12-11T18:05:56.140Z,30.58
2022-12-11T18:08:25.584Z,28.25
2022-12-11T18:10:53.094Z,30.35
2022-12-11T18:13:20.214Z,26.67
2022-12-11T18:15:46.575Z,27.20
2022-12-11T18:18:12.993Z,27.77
2022-12-11T18:20:39.402Z,28.17
2022-12-11T18:23:06.069Z,28.65
2022-12-11T18:25:32.441Z,47.67
2022-12-11T18:27:58.915Z,25.70
2022-12-11T18:30:25.717Z,29.15
2022-12-11T18:32:52.352Z,30.58
2022-12-11T18:35:18.762Z,29.85
2022-12-11T18:37:45.094Z,31.75
2022-12-11T18:40:11.842Z,32.05
2022-12-11T18:42:38.487Z,31.23
2022-12-11T18:45:05.737Z,32.25
2022-12-11T18:47:32.252Z,33.97
2022-12-11T18:50:03.928Z,33.45
2022-12-11T18:52:33.990Z,33.63
2022-12-11T18:55:00.387Z,32.33
2022-12-11T18:57:26.713Z,32.28
2022-12-11T18:59:53.544Z,30.10
2022-12-11T19:02:20.917Z,30.73
2022-12-11T19:04:47.344Z,30.70
2022-12-11T19:07:13.746Z,30.63
2022-12-11T19:09:44.835Z,29.63
2022-12-11T19:12:14.067Z,30.85
2022-12-11T19:14:40.380Z,29.85
2022-12-11T19:17:06.805Z,27.90
2022-12-11T19:19:33.159Z,28.02
2022-12-11T19:21:59.497Z,27.70
2022-12-11T19:24:25.824Z,29.30
2022-12-11T19:26:52.524Z,30.10
2022-12-11T19:29:21.960Z,29.08
2022-12-11T19:31:48.368Z,28.05
2022-12-11T19:34:15.554Z,28.58
2022-12-11T19:36:41.868Z,26.50
2022-12-11T19:39:12.763Z,29.73
2022-12-11T19:41:40.070Z,29.33
2022-12-11T19:44:06.633Z,29.85
2022-12-11T19:46:33.272Z,31.30
2022-12-11T19:49:00.098Z,30.00
2022-12-11T19:51:32.329Z,31.67
2022-12-11T19:53:59.280Z,32.97
2022-12-11T19:56:26.128Z,31.05
2022-12-11T19:58:52.473Z,33.00
2022-12-11T20:01:28.201Z,34.08
2022-12-11T20:03:57.191Z,32.15
2022-12-11T20:06:24.072Z,30.05
2022-12-11T20:08:50.573Z,32.20
2022-12-11T20:11:18.951Z,30.65
2022-12-11T20:13:48.390Z,29.77
2022-12-11T20:16:16.765Z,30.60
2022-12-11T20:18:43.244Z,29.83
2022-12-11T20:21:12.908Z,29.38
2022-12-11T20:23:39.284Z,30.30
2022-12-11T20:26:07.863Z,30.35
2022-12-11T20:28:34.317Z,28.20
2022-12-11T20:31:09.161Z,27.73
2022-12-11T20:33:35.792Z,28.50
2022-12-11T20:36:06.826Z,28.15
2022-12-11T20:38:34.636Z,28.48
2022-12-11T20:41:01.091Z,29.60
2022-12-11T20:43:27.435Z,28.25
2022-12-11T20:45:53.854Z,29.58
2022-12-11T20:48:20.227Z,29.10
2022-12-11T20:50:46.616Z,30.20
2022-12-11T20:53:13.011Z,30.75
2022-12-11T20:55:40.721Z,30.92
2022-12-11T20:58:07.556Z,31.38
2022-12-11T21:00:36.999Z,30.17
2022-12-11T21:03:04.180Z,30.48
2022-12-11T21:05:31.556Z,31.35
2022-12-11T21:07:57.935Z,30.02
2022-12-11T21:10:24.306Z,30.70
2022-12-11T21:12:50.674Z,30.35
2022-12-11T21:15:17.037Z,30.35
2022-12-11T21:17:43.404Z,32.03
2022-12-11T21:20:10.202Z,31.95
2022-12-11T21:22:36.522Z,31.42
2022-12-11T21:25:03.291Z,32.42
2022-12-11T21:27:29.630Z,33.83
2022-12-11T21:29:56.008Z,32.67
2022-12-11T21:32:22.518Z,31.95
2022-12-11T21:34:50.549Z,33.30
2022-12-11T21:37:17.359Z,38.65
2022-12-11T21:39:43.699Z,36.50
2022-12-11T21:42:10.046Z,35.50
2022-12-11T21:47:25.735Z,33.45
2022-12-11T21:49:52.093Z,32.53
2022-12-11T21:52:18.416Z,32.28
2022-12-11T21:54:44.794Z,31.30
2022-12-11T21:57:11.225Z,32.22
2022-12-11T21:59:37.572Z,32.25
2022-12-11T22:02:04.020Z,30.67
2022-12-11T22:04:30.412Z,33.30
2022-12-11T22:06:56.786Z,34.05
2022-12-11T22:09:23.253Z,33.03
2022-12-11T22:11:53.694Z,34.65
2022-12-11T22:14:22.937Z,33.72
2022-12-11T22:16:49.467Z,31.63
2022-12-11T22:19:15.881Z,33.05
2022-12-11T22:21:42.401Z,33.55
2022-12-11T22:24:08.810Z,32.42
2022-12-11T22:26:35.153Z,31.10
2022-12-11T22:29:01.453Z,33.35
2022-12-11T22:31:27.857Z,32.03
2022-12-11T22:33:54.927Z,31.95
2022-12-11T22:36:23.464Z,33.10
2022-12-11T22:38:49.780Z,30.90
2022-12-11T22:41:22.969Z,31.58
2022-12-11T22:43:50.271Z,29.77
2022-12-11T22:46:18.600Z,30.25
2022-12-11T22:48:44.909Z,28.98
2022-12-11T22:51:11.615Z,30.58
2022-12-11T22:53:38.019Z,28.38
2022-12-11T22:56:09.292Z,29.95
2022-12-11T22:58:35.788Z,40.15
2022-12-11T23:01:03.307Z,43.65
2022-12-11T23:03:29.772Z,38.47
2022-12-11T23:05:56.823Z,38.58
2022-12-11T23:08:25.239Z,34.10
2022-12-11T23:10:52.207Z,39.50
2022-12-11T23:13:18.528Z,42.00
2022-12-11T23:15:44.826Z,33.40
2022-12-11T23:18:11.150Z,34.33
2022-12-11T23:20:37.490Z,36.50
2022-12-11T23:23:03.827Z,34.33
2022-12-11T23:25:30.154Z,35.08
2022-12-11T23:27:56.456Z,35.10
2022-12-11T23:30:22.873Z,36.53
2022-12-11T23:32:49.240Z,34.55
2022-12-11T23:35:15.673Z,35.17
2022-12-11T23:37:42.108Z,34.65
2022-12-11T23:40:09.383Z,35.75
2022-12-11T23:42:35.779Z,33.45
2022-12-11T23:45:02.121Z,34.22
2022-12-11T23:47:28.464Z,33.80
2022-12-11T23:49:54.802Z,32.70
2022-12-11T23:52:21.135Z,33.95
2022-12-11T23:54:47.456Z,33.53
2022-12-11T23:57:13.903Z,34.35
2022-12-11T23:59:40.233Z,35.55
